KBVX

Details ICAO KBVX
Name BATESVILLE RGNL
Region United States
Timezone America/Chicago (UTC-5.0)
Plans Departing 1
Arriving 2
Stats Elevation 464 ft / 141 m (AMSL)
Location 35.726981° -91.645340°
Runways 2
Magnetic Variation 0.273° W
Sunrise 2018-05-25 10:56:21 UTC / 2018-05-25 05:56:21 Local
Sunset 2018-05-26 01:13:37 UTC / 2018-05-25 20:13:37 Local
Advertisement - Login to hide

Runways

ID Width Length Bearing (true) Bearing (mag) Surface Threshold Offset Overrun Length
07 150 ft / 46 m 5,991 ft / 1,826 m 79.75° 80.02° Asphalt 0 ft / 0 m 0 ft / 0 m
17 60 ft / 18 m 3,086 ft / 941 m 180.99° 181.26° Asphalt 0 ft / 0 m 0 ft / 0 m
25 150 ft / 46 m 5,991 ft / 1,826 m 259.76° 260.03° Asphalt 0 ft / 0 m 0 ft / 0 m
35 60 ft / 18 m 3,086 ft / 941 m 0.99° 1.26° Asphalt 272 ft / 83 m 0 ft / 0 m

Approach Navaids

Runway Type Ident Frequency Range Bearing (true) Bearing (mag) Slope Elevation
07 Localiser IBVX 109.70 MHz 18 nm / 33 km 79.76° 80.03° - 459 ft / 140 m (AMSL)
07 DME IBVX 109.70 MHz 18 nm / 33 km - - - 459 ft / 140 m (AMSL)

Map

Weather


0- 5 10 15 20 25 30 35+ Temperature / ° C

Clouds and Precipitation
Forecast for 2018-05-26 00:00 UTC. Updated 5 hours ago

Ground ~20,000 ft ~40,000 ft Winds

METAR

KBVX 260356Z AUTO 16004KT 9SM FEW070 20/19 A2990 RMK AO2 SLP120 T02000194

TAF

Not found

Frequencies

Recorded 126.85 MHz AWOS 3
Unicom 122.80 MHz CTAF/UNICOM
Warning: Do not use this data for real-world aviation or navigation. No guarantee of current accuracy is given.